首页
METAR-TAF:

METAR-TAF

机场 :

利伯維爾國際機場

利伯维尔, 加蓬

纬度: 00-27N, 经度: 009-25E, 海拔: 12米

当前天气观测

该预报发布于29分钟前的15:00 UTC
风速8节,风向西转西南,在南转西南西之间变化
温度 26°C
湿度 84%
气压 1014 hPa
能见度10公里或以上
少量云层高于1600英尺

METAR: FOOL 161500Z 24008KT 200V270 9999 FEW016 26/23 Q1014 NOSIG

时间: 16:29 (15:29 UTC)

预报

该预报发布于4小时和29分钟前的11:00 UTC
预报有效从16日的 12点(UTC)到 17日的 18点(UTC)
风速8节,风向西南
能见度10公里或以上
散云层高于1100英尺
多云层高于3300英尺
短暂存在
从 17日的 03点(UTC)到 17日的 10点(UTC)
多云层高于800英尺
阴天层高于2600英尺
几率 30%
从 16日的 04点(UTC)到 16日的 07点(UTC)
能見度: 4000
雨, 毛毛雨

TAF: FOOL 161100Z 1612/1718 22008KT 9999 SCT011 BKN033 TEMPO 1703/1710 BKN008 OVC026 PROB30 1604/1607 4000 RADZ

超过4000个机场的气象观测和天气预报(METAR&TAF报告)。

可查询的气象台以黄色和红色小点在地图上表示。

将鼠标移到小点上方,可查看气象台名称。

然后点击查看天气观测和预报。

如需切换地图:点击带黑十字的绿色按钮放大地图;点击带横线的绿色按钮缩小地图;或者点击绿色箭头查看邻近地区的地图。


METAR-TAF: